sensor_id;sensor_type;location;lat;lon;timestamp;pressure;altitude;pressure_sealevel;temperature;humidity
77939;BME280;67136;47.546;21.630;2024-03-07T00:02:17;99937.06;;;6.76;100.00
77939;BME280;67136;47.546;21.630;2024-03-07T00:05:21;99938.06;;;6.86;100.00
77939;BME280;67136;47.546;21.630;2024-03-07T00:08:27;99936.84;;;6.79;100.00
77939;BME280;67136;47.546;21.630;2024-03-07T00:11:30;99933.75;;;6.74;100.00
77939;BME280;67136;47.546;21.630;2024-03-07T00:14:33;99942.47;;;6.73;100.00
77939;BME280;67136;47.546;21.630;2024-03-07T00:17:41;99937.28;;;6.73;100.00
77939;BME280;67136;47.546;21.630;2024-03-07T00:20:44;99933.97;;;6.71;100.00
77939;BME280;67136;47.546;21.630;2024-03-07T00:23:46;99933.00;;;6.72;100.00
77939;BME280;67136;47.546;21.630;2024-03-07T00:26:49;99936.06;;;6.66;100.00
77939;BME280;67136;47.546;21.630;2024-03-07T00:29:56;99933.97;;;6.71;100.00
77939;BME280;67136;47.546;21.630;2024-03-07T00:32:59;99933.81;;;6.62;100.00
77939;BME280;67136;47.546;21.630;2024-03-07T00:36:04;99928.22;;;6.55;100.00
77939;BME280;67136;47.546;21.630;2024-03-07T00:39:07;99931.09;;;6.63;100.00
77939;BME280;67136;47.546;21.630;2024-03-07T00:42:16;99925.06;;;6.63;100.00
77939;BME280;67136;47.546;21.630;2024-03-07T00:45:19;99916.00;;;6.45;100.00
77939;BME280;67136;47.546;21.630;2024-03-07T00:48:22;99923.03;;;6.55;100.00
77939;BME280;67136;47.546;21.630;2024-03-07T00:51:27;99918.66;;;6.56;100.00
77939;BME280;67136;47.546;21.630;2024-03-07T00:54:32;99924.06;;;6.53;100.00
77939;BME280;67136;47.546;21.630;2024-03-07T00:57:34;99924.09;;;6.40;100.00
77939;BME280;67136;47.546;21.630;2024-03-07T01:00:40;99925.13;;;6.50;100.00
77939;BME280;67136;47.546;21.630;2024-03-07T01:03:45;99924.53;;;6.47;100.00
77939;BME280;67136;47.546;21.630;2024-03-07T01:06:48;99920.59;;;6.41;100.00
77939;BME280;67136;47.546;21.630;2024-03-07T01:09:50;99917.50;;;6.36;100.00
77939;BME280;67136;47.546;21.630;2024-03-07T01:12:54;99921.72;;;6.37;100.00
77939;BME280;67136;47.546;21.630;2024-03-07T01:16:00;99924.72;;;6.44;100.00
77939;BME280;67136;47.546;21.630;2024-03-07T01:19:05;99917.25;;;6.39;100.00
77939;BME280;67136;47.546;21.630;2024-03-07T01:22:11;99924.09;;;6.40;100.00
77939;BME280;67136;47.546;21.630;2024-03-07T01:25:14;99920.31;;;6.33;100.00
77939;BME280;67136;47.546;21.630;2024-03-07T01:28:16;99917.91;;;6.30;100.00
77939;BME280;67136;47.546;21.630;2024-03-07T01:31:22;99919.81;;;6.28;100.00
77939;BME280;67136;47.546;21.630;2024-03-07T01:34:24;99922.28;;;6.29;100.00
77939;BME280;67136;47.546;21.630;2024-03-07T01:37:27;99913.56;;;6.30;100.00
77939;BME280;67136;47.546;21.630;2024-03-07T01:40:30;99922.47;;;6.39;100.00
77939;BME280;67136;47.546;21.630;2024-03-07T01:43:33;99921.94;;;6.34;100.00
77939;BME280;67136;47.546;21.630;2024-03-07T01:46:36;99921.78;;;6.24;100.00
77939;BME280;67136;47.546;21.630;2024-03-07T01:49:39;99921.91;;;6.23;100.00
77939;BME280;67136;47.546;21.630;2024-03-07T01:52:42;99914.81;;;6.25;100.00
77939;BME280;67136;47.546;21.630;2024-03-07T01:55:45;99915.25;;;6.19;100.00
77939;BME280;67136;47.546;21.630;2024-03-07T01:58:48;99914.31;;;6.20;100.00
77939;BME280;67136;47.546;21.630;2024-03-07T02:01:52;99920.50;;;6.30;100.00
77939;BME280;67136;47.546;21.630;2024-03-07T02:04:55;99918.78;;;6.18;100.00
77939;BME280;67136;47.546;21.630;2024-03-07T02:08:00;99917.72;;;6.20;100.00
77939;BME280;67136;47.546;21.630;2024-03-07T02:11:04;99920.44;;;6.19;100.00
77939;BME280;67136;47.546;21.630;2024-03-07T02:14:07;99913.09;;;6.13;100.00
77939;BME280;67136;47.546;21.630;2024-03-07T02:17:09;99911.41;;;6.12;100.00
77939;BME280;67136;47.546;21.630;2024-03-07T02:20:12;99912.38;;;6.11;100.00
77939;BME280;67136;47.546;21.630;2024-03-07T02:23:18;99918.91;;;6.16;100.00
77939;BME280;67136;47.546;21.630;2024-03-07T02:26:21;99921.69;;;6.13;100.00
77939;BME280;67136;47.546;21.630;2024-03-07T02:29:24;99917.34;;;6.14;100.00
77939;BME280;67136;47.546;21.630;2024-03-07T02:32:27;99919.44;;;6.09;100.00
77939;BME280;67136;47.546;21.630;2024-03-07T02:35:30;99912.88;;;6.16;100.00
77939;BME280;67136;47.546;21.630;2024-03-07T02:38:32;99914.53;;;6.17;100.00
77939;BME280;67136;47.546;21.630;2024-03-07T02:41:37;99913.03;;;6.25;100.00
77939;BME280;67136;47.546;21.630;2024-03-07T02:44:41;99920.09;;;6.23;100.00
77939;BME280;67136;47.546;21.630;2024-03-07T02:47:44;99920.38;;;6.08;100.00
77939;BME280;67136;47.546;21.630;2024-03-07T02:50:47;99921.91;;;6.10;100.00
77939;BME280;67136;47.546;21.630;2024-03-07T02:53:50;99927.72;;;6.14;100.00
77939;BME280;67136;47.546;21.630;2024-03-07T02:56:52;99927.31;;;6.07;100.00
77939;BME280;67136;47.546;21.630;2024-03-07T02:59:56;99929.38;;;6.15;100.00
77939;BME280;67136;47.546;21.630;2024-03-07T03:02:59;99929.81;;;6.09;100.00
77939;BME280;67136;47.546;21.630;2024-03-07T03:06:02;99930.78;;;5.95;100.00
77939;BME280;67136;47.546;21.630;2024-03-07T03:09:05;99936.56;;;5.99;100.00
77939;BME280;67136;47.546;21.630;2024-03-07T03:12:08;99935.78;;;5.86;100.00
77939;BME280;67136;47.546;21.630;2024-03-07T03:15:11;99939.59;;;5.93;100.00
77939;BME280;67136;47.546;21.630;2024-03-07T03:18:14;99939.37;;;5.96;100.00
77939;BME280;67136;47.546;21.630;2024-03-07T03:21:17;99942.09;;;5.94;100.00
77939;BME280;67136;47.546;21.630;2024-03-07T03:24:19;99942.91;;;5.95;100.00
77939;BME280;67136;47.546;21.630;2024-03-07T03:27:22;99949.38;;;5.89;100.00
77939;BME280;67136;47.546;21.630;2024-03-07T03:30:25;99939.37;;;5.96;100.00
77939;BME280;67136;47.546;21.630;2024-03-07T03:33:28;99939.59;;;5.93;100.00
77939;BME280;67136;47.546;21.630;2024-03-07T03:36:31;99937.72;;;5.70;100.00
77939;BME280;67136;47.546;21.630;2024-03-07T03:39:34;99938.22;;;5.75;100.00
77939;BME280;67136;47.546;21.630;2024-03-07T03:42:41;99943.31;;;5.64;100.00
77939;BME280;67136;47.546;21.630;2024-03-07T03:45:43;99937.72;;;5.70;100.00
77939;BME280;67136;47.546;21.630;2024-03-07T03:48:46;99942.19;;;5.68;100.00
77939;BME280;67136;47.546;21.630;2024-03-07T03:51:48;99941.47;;;5.66;100.00
77939;BME280;67136;47.546;21.630;2024-03-07T03:54:51;99945.19;;;5.62;100.00
77939;BME280;67136;47.546;21.630;2024-03-07T03:57:53;99944.78;;;5.68;100.00
77939;BME280;67136;47.546;21.630;2024-03-07T04:00:56;99949.97;;;5.68;100.00
77939;BME280;67136;47.546;21.630;2024-03-07T04:04:01;99951.41;;;5.72;100.00
77939;BME280;67136;47.546;21.630;2024-03-07T04:07:03;99945.38;;;5.71;100.00
77939;BME280;67136;47.546;21.630;2024-03-07T04:10:07;99952.47;;;5.69;100.00
77939;BME280;67136;47.546;21.630;2024-03-07T04:13:09;99947.06;;;5.72;100.00
77939;BME280;67136;47.546;21.630;2024-03-07T04:16:14;99949.53;;;5.74;100.00
77939;BME280;67136;47.546;21.630;2024-03-07T04:19:17;99945.69;;;5.67;100.00
77939;BME280;67136;47.546;21.630;2024-03-07T04:22:22;99941.47;;;5.66;100.00
77939;BME280;67136;47.546;21.630;2024-03-07T04:25:25;99944.56;;;5.58;100.00
77939;BME280;67136;47.546;21.630;2024-03-07T04:28:27;99938.56;;;5.58;100.00
77939;BME280;67136;47.546;21.630;2024-03-07T04:31:32;99938.13;;;5.51;100.00
77939;BME280;67136;47.546;21.630;2024-03-07T04:34:35;99942.28;;;5.54;100.00
77939;BME280;67136;47.546;21.630;2024-03-07T04:37:42;99938.97;;;5.52;100.00
77939;BME280;67136;47.546;21.630;2024-03-07T04:40:45;99935.75;;;5.48;100.00
77939;BME280;67136;47.546;21.630;2024-03-07T04:43:50;99943.09;;;5.42;100.00
77939;BME280;67136;47.546;21.630;2024-03-07T04:46:53;99935.62;;;5.50;100.00
77939;BME280;67136;47.546;21.630;2024-03-07T04:49:58;99936.06;;;5.44;100.00
77939;BME280;67136;47.546;21.630;2024-03-07T04:53:00;99941.34;;;5.42;100.00
77939;BME280;67136;47.546;21.630;2024-03-07T04:56:04;99939.28;;;5.47;100.00
77939;BME280;67136;47.546;21.630;2024-03-07T04:59:07;99939.37;;;5.46;100.00
77939;BME280;67136;47.546;21.630;2024-03-07T05:02:09;99945.16;;;5.37;100.00
77939;BME280;67136;47.546;21.630;2024-03-07T05:05:12;99947.56;;;5.40;100.00
77939;BME280;67136;47.546;21.630;2024-03-07T05:08:16;99952.84;;;5.38;100.00
77939;BME280;67136;47.546;21.630;2024-03-07T05:11:18;99955.97;;;5.43;100.00
77939;BME280;67136;47.546;21.630;2024-03-07T05:14:21;99957.63;;;5.44;100.00
77939;BME280;67136;47.546;21.630;2024-03-07T05:17:24;99963.75;;;5.56;100.00
77939;BME280;67136;47.546;21.630;2024-03-07T05:20:27;99966.47;;;5.54;100.00
77939;BME280;67136;47.546;21.630;2024-03-07T05:23:34;99970.06;;;5.52;100.00
77939;BME280;67136;47.546;21.630;2024-03-07T05:26:37;99966.97;;;5.47;100.00
77939;BME280;67136;47.546;21.630;2024-03-07T05:29:43;99968.44;;;5.51;100.00
77939;BME280;67136;47.546;21.630;2024-03-07T05:32:45;99951.28;;;5.48;100.00
77939;BME280;67136;47.546;21.630;2024-03-07T05:35:48;99972.16;;;5.47;100.00
77939;BME280;67136;47.546;21.630;2024-03-07T05:38:52;99969.75;;;5.44;100.00
77939;BME280;67136;47.546;21.630;2024-03-07T05:41:55;99962.59;;;5.60;100.00
77939;BME280;67136;47.546;21.630;2024-03-07T05:45:01;99969.69;;;5.58;100.00
77939;BME280;67136;47.546;21.630;2024-03-07T05:48:14;99971.31;;;5.71;100.00
77939;BME280;67136;47.546;21.630;2024-03-07T05:51:20;99971.03;;;5.76;100.00
77939;BME280;67136;47.546;21.630;2024-03-07T05:54:23;99969.50;;;5.86;100.00
77939;BME280;67136;47.546;21.630;2024-03-07T05:57:25;99975.06;;;6.05;100.00
77939;BME280;67136;47.546;21.630;2024-03-07T06:00:28;99967.38;;;5.78;100.00
77939;BME280;67136;47.546;21.630;2024-03-07T06:03:31;99972.16;;;5.97;100.00
77939;BME280;67136;47.546;21.630;2024-03-07T06:06:35;99976.84;;;6.04;100.00
77939;BME280;67136;47.546;21.630;2024-03-07T06:09:38;99974.44;;;6.26;100.00
77939;BME280;67136;47.546;21.630;2024-03-07T06:12:41;99973.03;;;6.46;100.00
77939;BME280;67136;47.546;21.630;2024-03-07T06:16:06;99975.41;;;6.49;100.00
77939;BME280;67136;47.546;21.630;2024-03-07T06:19:10;99980.41;;;6.40;100.00
77939;BME280;67136;47.546;21.630;2024-03-07T06:22:16;99979.72;;;6.61;100.00
77939;BME280;67136;47.546;21.630;2024-03-07T06:25:18;99989.03;;;6.76;100.00
77939;BME280;67136;47.546;21.630;2024-03-07T06:28:36;99977.38;;;6.82;100.00
77939;BME280;67136;47.546;21.630;2024-03-07T06:31:40;99978.84;;;6.73;100.00
77939;BME280;67136;47.546;21.630;2024-03-07T06:34:46;99983.22;;;6.96;100.00
77939;BME280;67136;47.546;21.630;2024-03-07T06:37:49;99989.06;;;6.87;100.00
77939;BME280;67136;47.546;21.630;2024-03-07T06:40:55;99987.47;;;6.97;100.00
77939;BME280;67136;47.546;21.630;2024-03-07T06:43:58;99991.47;;;6.90;100.00
77939;BME280;67136;47.546;21.630;2024-03-07T06:47:01;99993.16;;;6.79;100.00
77939;BME280;67136;47.546;21.630;2024-03-07T06:50:04;100000.88;;;6.80;100.00
77939;BME280;67136;47.546;21.630;2024-03-07T06:53:09;100009.16;;;6.85;100.00
77939;BME280;67136;47.546;21.630;2024-03-07T06:56:12;100011.81;;;6.96;100.00
77939;BME280;67136;47.546;21.630;2024-03-07T06:59:15;100014.41;;;6.96;100.00
77939;BME280;67136;47.546;21.630;2024-03-07T07:02:17;100012.88;;;6.94;100.00
77939;BME280;67136;47.546;21.630;2024-03-07T07:05:21;100013.41;;;6.86;100.00
77939;BME280;67136;47.546;21.630;2024-03-07T07:08:23;100008.25;;;6.97;100.00
77939;BME280;67136;47.546;21.630;2024-03-07T07:11:27;100008.38;;;6.96;100.00
77939;BME280;67136;47.546;21.630;2024-03-07T07:14:36;100013.06;;;7.14;100.00
77939;BME280;67136;47.546;21.630;2024-03-07T07:17:39;100019.66;;;7.07;100.00
77939;BME280;67136;47.546;21.630;2024-03-07T07:20:42;100018.00;;;7.06;100.00
77939;BME280;67136;47.546;21.630;2024-03-07T07:23:46;100019.00;;;7.16;100.00
77939;BME280;67136;47.546;21.630;2024-03-07T07:27:13;100029.84;;;7.10;100.00
77939;BME280;67136;47.546;21.630;2024-03-07T07:30:19;100008.53;;;7.29;100.00
77939;BME280;67136;47.546;21.630;2024-03-07T07:33:24;100023.37;;;7.50;100.00
77939;BME280;67136;47.546;21.630;2024-03-07T07:36:27;100019.75;;;7.29;100.00
77939;BME280;67136;47.546;21.630;2024-03-07T07:39:32;100020.13;;;7.36;100.00
77939;BME280;67136;47.546;21.630;2024-03-07T07:42:36;100021.19;;;7.33;100.00
77939;BME280;67136;47.546;21.630;2024-03-07T07:45:41;100028.34;;;7.53;100.00
77939;BME280;67136;47.546;21.630;2024-03-07T07:48:47;100033.63;;;7.17;100.00
77939;BME280;67136;47.546;21.630;2024-03-07T07:51:50;100030.22;;;7.51;100.00
77939;BME280;67136;47.546;21.630;2024-03-07T07:55:02;100039.84;;;7.62;100.00
77939;BME280;67136;47.546;21.630;2024-03-07T07:58:09;100036.78;;;7.68;100.00
77939;BME280;67136;47.546;21.630;2024-03-07T08:01:16;100042.53;;;7.95;100.00
77939;BME280;67136;47.546;21.630;2024-03-07T08:04:21;100043.97;;;7.99;100.00
77939;BME280;67136;47.546;21.630;2024-03-07T08:07:25;100041.47;;;7.98;100.00
77939;BME280;67136;47.546;21.630;2024-03-07T08:10:29;100052.56;;;7.78;100.00
77939;BME280;67136;47.546;21.630;2024-03-07T08:13:32;100049.66;;;8.04;100.00
77939;BME280;67136;47.546;21.630;2024-03-07T08:16:35;100051.19;;;8.18;100.00
77939;BME280;67136;47.546;21.630;2024-03-07T08:19:40;100056.75;;;8.02;100.00
77939;BME280;67136;47.546;21.630;2024-03-07T08:22:45;100062.97;;;8.34;100.00
77939;BME280;67136;47.546;21.630;2024-03-07T08:25:47;100058.28;;;8.16;100.00
77939;BME280;67136;47.546;21.630;2024-03-07T08:31:02;100054.53;;;8.42;98.95
77939;BME280;67136;47.546;21.630;2024-03-07T08:34:05;100065.94;;;8.30;98.82
77939;BME280;67136;47.546;21.630;2024-03-07T08:37:08;100060.34;;;8.45;98.22
77939;BME280;67136;47.546;21.630;2024-03-07T08:40:12;100066.41;;;8.35;97.17
77939;BME280;67136;47.546;21.630;2024-03-07T08:43:21;100075.38;;;8.64;94.91
77939;BME280;67136;47.546;21.630;2024-03-07T08:46:25;100071.13;;;8.52;94.59
77939;BME280;67136;47.546;21.630;2024-03-07T08:49:27;100075.28;;;8.76;93.54
77939;BME280;67136;47.546;21.630;2024-03-07T08:52:32;100070.87;;;8.77;93.08
77939;BME280;67136;47.546;21.630;2024-03-07T08:55:37;100077.06;;;8.65;92.88
77939;BME280;67136;47.546;21.630;2024-03-07T08:58:41;100081.44;;;8.64;92.38
77939;BME280;67136;47.546;21.630;2024-03-07T09:01:45;100067.31;;;8.78;91.84
77939;BME280;67136;47.546;21.630;2024-03-07T09:04:49;100073.84;;;8.61;92.49
77939;BME280;67136;47.546;21.630;2024-03-07T09:07:53;100084.84;;;8.76;91.88
77939;BME280;67136;47.546;21.630;2024-03-07T09:10:56;100091.50;;;8.58;91.46
77939;BME280;67136;47.546;21.630;2024-03-07T09:14:00;100092.34;;;8.58;91.16
77939;BME280;67136;47.546;21.630;2024-03-07T09:17:03;100091.19;;;8.17;93.34
77939;BME280;67136;47.546;21.630;2024-03-07T09:20:07;100093.09;;;8.15;93.06
77939;BME280;67136;47.546;21.630;2024-03-07T09:23:17;100099.97;;;8.16;93.51
77939;BME280;67136;47.546;21.630;2024-03-07T09:26:20;100101.78;;;8.26;93.42
77939;BME280;67136;47.546;21.630;2024-03-07T09:29:23;100099.66;;;8.31;92.87
77939;BME280;67136;47.546;21.630;2024-03-07T09:32:26;100109.59;;;8.26;93.10
77939;BME280;67136;47.546;21.630;2024-03-07T09:35:31;100109.00;;;8.34;92.62
77939;BME280;67136;47.546;21.630;2024-03-07T09:38:34;100112.69;;;8.42;92.75
77939;BME280;67136;47.546;21.630;2024-03-07T09:41:38;100115.91;;;8.35;92.82
77939;BME280;67136;47.546;21.630;2024-03-07T09:44:45;100120.16;;;8.47;91.72
77939;BME280;67136;47.546;21.630;2024-03-07T09:47:55;100114.00;;;8.81;89.43
77939;BME280;67136;47.546;21.630;2024-03-07T09:50:59;100119.69;;;8.75;89.59
77939;BME280;67136;47.546;21.630;2024-03-07T09:54:03;100125.59;;;8.77;89.44
77939;BME280;67136;47.546;21.630;2024-03-07T09:57:07;100126.31;;;8.57;89.84
77939;BME280;67136;47.546;21.630;2024-03-07T10:00:17;100119.91;;;8.94;88.57
77939;BME280;67136;47.546;21.630;2024-03-07T10:03:29;100128.84;;;9.34;86.39
77939;BME280;67136;47.546;21.630;2024-03-07T10:06:32;100121.97;;;9.33;86.03
77939;BME280;67136;47.546;21.630;2024-03-07T10:09:39;100117.44;;;9.04;87.19
77939;BME280;67136;47.546;21.630;2024-03-07T10:12:46;100126.72;;;9.28;85.35
77939;BME280;67136;47.546;21.630;2024-03-07T10:15:56;100126.53;;;9.09;85.89
77939;BME280;67136;47.546;21.630;2024-03-07T10:19:05;100132.41;;;9.33;85.01
77939;BME280;67136;47.546;21.630;2024-03-07T10:22:08;100131.44;;;9.34;84.26
77939;BME280;67136;47.546;21.630;2024-03-07T10:25:11;100139.13;;;8.93;86.06
77939;BME280;67136;47.546;21.630;2024-03-07T10:28:17;100141.94;;;9.01;86.54
77939;BME280;67136;47.546;21.630;2024-03-07T10:31:34;100140.41;;;9.10;86.28
77939;BME280;67136;47.546;21.630;2024-03-07T10:34:57;100139.81;;;9.06;86.30
77939;BME280;67136;47.546;21.630;2024-03-07T10:38:02;100136.00;;;9.32;85.69
77939;BME280;67136;47.546;21.630;2024-03-07T10:41:20;100138.50;;;9.54;83.84
77939;BME280;67136;47.546;21.630;2024-03-07T10:44:29;100140.12;;;9.66;83.00
77939;BME280;67136;47.546;21.630;2024-03-07T10:47:35;100149.31;;;9.81;82.52
77939;BME280;67136;47.546;21.630;2024-03-07T10:54:21;100151.75;;;10.26;79.87
77939;BME280;67136;47.546;21.630;2024-03-07T10:57:49;100152.91;;;10.12;80.67
77939;BME280;67136;47.546;21.630;2024-03-07T11:00:56;100155.09;;;10.28;79.41
77939;BME280;67136;47.546;21.630;2024-03-07T11:04:01;100150.16;;;10.55;78.44
77939;BME280;67136;47.546;21.630;2024-03-07T11:07:10;100147.72;;;10.63;77.28
77939;BME280;67136;47.546;21.630;2024-03-07T11:10:13;100148.25;;;10.16;79.67
77939;BME280;67136;47.546;21.630;2024-03-07T11:13:17;100148.59;;;9.90;81.07
77939;BME280;67136;47.546;21.630;2024-03-07T11:16:23;100156.72;;;9.76;81.43
77939;BME280;67136;47.546;21.630;2024-03-07T11:19:27;100151.47;;;9.76;81.32
77939;BME280;67136;47.546;21.630;2024-03-07T11:22:31;100155.53;;;9.69;82.55
77939;BME280;67136;47.546;21.630;2024-03-07T11:25:37;100156.00;;;9.74;82.12
77939;BME280;67136;47.546;21.630;2024-03-07T11:28:42;100158.00;;;9.82;81.84
77939;BME280;67136;47.546;21.630;2024-03-07T11:31:45;100155.19;;;9.42;83.87
77939;BME280;67136;47.546;21.630;2024-03-07T11:34:48;100158.41;;;9.66;82.92
77939;BME280;67136;47.546;21.630;2024-03-07T11:37:59;100162.91;;;9.22;84.59
77939;BME280;67136;47.546;21.630;2024-03-07T11:41:01;100156.06;;;8.88;86.67
77939;BME280;67136;47.546;21.630;2024-03-07T11:44:06;100159.28;;;9.02;86.37
77939;BME280;67136;47.546;21.630;2024-03-07T11:47:09;100156.41;;;8.72;86.84
77939;BME280;67136;47.546;21.630;2024-03-07T11:50:12;100165.66;;;8.87;87.21
77939;BME280;67136;47.546;21.630;2024-03-07T11:53:15;100171.34;;;8.81;87.72
77939;BME280;67136;47.546;21.630;2024-03-07T11:56:19;100174.06;;;8.57;89.42
77939;BME280;67136;47.546;21.630;2024-03-07T11:59:22;100159.97;;;8.82;88.54
77939;BME280;67136;47.546;21.630;2024-03-07T12:02:27;100166.63;;;8.86;89.13
77939;BME280;67136;47.546;21.630;2024-03-07T12:05:33;100164.38;;;8.82;89.79
77939;BME280;67136;47.546;21.630;2024-03-07T12:08:36;100161.16;;;9.00;88.76
77939;BME280;67136;47.546;21.630;2024-03-07T12:11:39;100169.19;;;8.64;89.27
77939;BME280;67136;47.546;21.630;2024-03-07T12:14:43;100167.06;;;8.58;89.01
77939;BME280;67136;47.546;21.630;2024-03-07T12:17:47;100161.28;;;8.54;90.17
77939;BME280;67136;47.546;21.630;2024-03-07T12:20:52;100163.50;;;8.48;90.26
77939;BME280;67136;47.546;21.630;2024-03-07T12:24:35;100169.19;;;8.64;90.22
77939;BME280;67136;47.546;21.630;2024-03-07T12:28:08;100162.56;;;8.71;88.91
77939;BME280;67136;47.546;21.630;2024-03-07T12:31:14;100155.94;;;9.00;88.02
77939;BME280;67136;47.546;21.630;2024-03-07T12:34:22;100167.31;;;8.88;87.59
77939;BME280;67136;47.546;21.630;2024-03-07T12:37:35;100170.06;;;9.09;87.36
77939;BME280;67136;47.546;21.630;2024-03-07T12:40:38;100169.91;;;8.99;88.08
77939;BME280;67136;47.546;21.630;2024-03-07T12:43:44;100160.22;;;9.12;88.90
77939;BME280;67136;47.546;21.630;2024-03-07T12:46:54;100163.41;;;9.05;89.95
77939;BME280;67136;47.546;21.630;2024-03-07T12:49:58;100162.28;;;9.29;90.29
77939;BME280;67136;47.546;21.630;2024-03-07T12:53:04;100161.94;;;9.23;91.56
77939;BME280;67136;47.546;21.630;2024-03-07T12:56:08;100161.81;;;9.24;91.43
77939;BME280;67136;47.546;21.630;2024-03-07T12:59:14;100158.63;;;9.21;92.95
77939;BME280;67136;47.546;21.630;2024-03-07T13:02:17;100157.03;;;9.51;90.43
77939;BME280;67136;47.546;21.630;2024-03-07T13:05:22;100160.81;;;9.58;89.48
77939;BME280;67136;47.546;21.630;2024-03-07T13:08:25;100165.72;;;9.41;89.83
77939;BME280;67136;47.546;21.630;2024-03-07T13:11:33;100163.00;;;9.42;89.46
77939;BME280;67136;47.546;21.630;2024-03-07T13:14:36;100165.63;;;9.31;89.34
77939;BME280;67136;47.546;21.630;2024-03-07T13:17:39;100158.72;;;9.52;87.40
77939;BME280;67136;47.546;21.630;2024-03-07T13:20:42;100167.16;;;9.76;86.39
77939;BME280;67136;47.546;21.630;2024-03-07T13:23:48;100164.91;;;10.03;84.80
77939;BME280;67136;47.546;21.630;2024-03-07T13:26:51;100165.13;;;10.12;83.94
77939;BME280;67136;47.546;21.630;2024-03-07T13:29:54;100161.34;;;10.04;82.73
77939;BME280;67136;47.546;21.630;2024-03-07T13:32:59;100154.97;;;9.97;81.01
77939;BME280;67136;47.546;21.630;2024-03-07T13:36:02;100167.97;;;10.20;80.57
77939;BME280;67136;47.546;21.630;2024-03-07T13:39:07;100170.13;;;10.15;79.44
77939;BME280;67136;47.546;21.630;2024-03-07T13:42:16;100166.09;;;10.11;79.40
77939;BME280;67136;47.546;21.630;2024-03-07T13:45:21;100172.47;;;10.18;79.31
77939;BME280;67136;47.546;21.630;2024-03-07T13:48:24;100165.69;;;9.94;80.00
77939;BME280;67136;47.546;21.630;2024-03-07T13:51:27;100164.62;;;10.18;79.05
77939;BME280;67136;47.546;21.630;2024-03-07T13:54:30;100166.41;;;9.85;79.45
77939;BME280;67136;47.546;21.630;2024-03-07T13:57:46;100168.44;;;9.82;80.74
77939;BME280;67136;47.546;21.630;2024-03-07T14:08:00;100167.62;;;9.39;81.84
77939;BME280;67136;47.546;21.630;2024-03-07T14:19:13;100178.16;;;9.48;82.30
77939;BME280;67136;47.546;21.630;2024-03-07T14:22:52;100177.56;;;9.45;82.05
77939;BME280;67136;47.546;21.630;2024-03-07T14:33:14;100182.72;;;9.13;81.97
77939;BME280;67136;47.546;21.630;2024-03-07T14:36:23;100182.22;;;9.19;82.22
77939;BME280;67136;47.546;21.630;2024-03-07T14:39:34;100185.56;;;9.21;81.50
77939;BME280;67136;47.546;21.630;2024-03-07T14:42:49;100187.78;;;9.26;80.48
77939;BME280;67136;47.546;21.630;2024-03-07T14:45:52;100187.44;;;9.19;80.36
77939;BME280;67136;47.546;21.630;2024-03-07T14:48:57;100193.59;;;9.29;80.25
77939;BME280;67136;47.546;21.630;2024-03-07T14:52:01;100191.28;;;9.15;80.58
77939;BME280;67136;47.546;21.630;2024-03-07T14:55:04;100193.25;;;9.23;80.33
77939;BME280;67136;47.546;21.630;2024-03-07T14:58:07;100195.28;;;9.30;80.29
77939;BME280;67136;47.546;21.630;2024-03-07T15:01:12;100191.47;;;9.34;80.25
77939;BME280;67136;47.546;21.630;2024-03-07T15:04:16;100188.97;;;9.33;80.17
77939;BME280;67136;47.546;21.630;2024-03-07T15:07:18;100192.63;;;9.41;80.26
77939;BME280;67136;47.546;21.630;2024-03-07T15:10:36;100203.81;;;9.32;79.88
77939;BME280;67136;47.546;21.630;2024-03-07T15:13:40;100204.06;;;9.18;79.92
77939;BME280;67136;47.546;21.630;2024-03-07T15:16:44;100197.69;;;9.00;80.55
77939;BME280;67136;47.546;21.630;2024-03-07T15:19:49;100198.75;;;9.09;80.24
77939;BME280;67136;47.546;21.630;2024-03-07T15:22:56;100197.28;;;9.16;79.63
77939;BME280;67136;47.546;21.630;2024-03-07T15:25:59;100197.91;;;9.08;79.98
77939;BME280;67136;47.546;21.630;2024-03-07T15:29:05;100205.97;;;9.05;79.90
77939;BME280;67136;47.546;21.630;2024-03-07T15:32:12;100191.28;;;8.93;80.29
77939;BME280;67136;47.546;21.630;2024-03-07T15:35:17;100197.09;;;8.97;80.48
77939;BME280;67136;47.546;21.630;2024-03-07T15:38:20;100203.84;;;8.88;80.48
77939;BME280;67136;47.546;21.630;2024-03-07T15:41:23;100199.09;;;8.93;80.52
77939;BME280;67136;47.546;21.630;2024-03-07T15:44:27;100206.06;;;8.93;80.50
77939;BME280;67136;47.546;21.630;2024-03-07T15:47:30;100205.84;;;8.85;81.00
77939;BME280;67136;47.546;21.630;2024-03-07T15:50:34;100206.19;;;8.80;81.25
77939;BME280;67136;47.546;21.630;2024-03-07T15:53:40;100212.22;;;8.80;81.47
77939;BME280;67136;47.546;21.630;2024-03-07T15:56:49;100215.78;;;8.79;81.56
77939;BME280;67136;47.546;21.630;2024-03-07T15:59:59;100222.78;;;8.79;81.58
77939;BME280;67136;47.546;21.630;2024-03-07T16:03:06;100219.69;;;8.74;81.89
77939;BME280;67136;47.546;21.630;2024-03-07T16:06:13;100228.00;;;8.79;82.00
77939;BME280;67136;47.546;21.630;2024-03-07T16:09:19;100224.66;;;8.77;82.19
77939;BME280;67136;47.546;21.630;2024-03-07T16:12:25;100220.88;;;8.70;82.78
77939;BME280;67136;47.546;21.630;2024-03-07T16:15:29;100224.41;;;8.69;82.87
77939;BME280;67136;47.546;21.630;2024-03-07T16:18:43;100234.59;;;8.72;82.90
77939;BME280;67136;47.546;21.630;2024-03-07T16:21:46;100239.12;;;8.70;83.54
77939;BME280;67136;47.546;21.630;2024-03-07T16:24:51;100237.22;;;8.72;83.55
77939;BME280;67136;47.546;21.630;2024-03-07T16:27:54;100240.53;;;8.63;84.04
77939;BME280;67136;47.546;21.630;2024-03-07T16:30:57;100242.19;;;8.64;84.13
77939;BME280;67136;47.546;21.630;2024-03-07T16:34:04;100241.47;;;8.62;84.31